Time;durP1;ratioP1;P1;durP2;ratioP2;P2;SDS_P1;SDS_P2;PMS_P1;PMS_P2;Temp;Humidity;BMP_temperature;BMP_pressure;BME280_temperature;BME280_humidity;BME280_pressure;Samples;Min_cycle;Max_cycle;Signal;HPM_P1;HPM_P2
2022/05/11 00:02:24;;;;;;;4.63;3.00;;;;;;;;;;7389322;19;20631;-76
2022/05/11 00:04:49;;;;;;;3.45;2.63;;;;;;;;;;7389920;19;20003;-76
2022/05/11 00:07:14;;;;;;;8.40;3.60;;;;;;;;;;7392332;19;20447;-77
2022/05/11 00:09:40;;;;;;;2.72;2.50;;;;;;;;;;7392035;19;20039;-76
2022/05/11 00:12:05;;;;;;;5.95;3.38;;;;;;;;;;7394201;19;20015;-76
2022/05/11 00:14:31;;;;;;;3.22;2.60;;;;;;;;;;7389700;19;20035;-76
2022/05/11 00:16:59;;;;;;;2.58;2.13;;;;;;;;;;7391297;19;20025;-78
2022/05/11 00:19:25;;;;;;;7.13;2.83;;;;;;;;;;7388995;19;20013;-78
2022/05/11 00:21:50;;;;;;;5.40;3.50;;;;;;;;;;7392579;19;20002;-77
2022/05/11 00:24:15;;;;;;;6.53;2.95;;;;;;;;;;7390184;19;20020;-76
2022/05/11 00:26:41;;;;;;;3.50;2.72;;;;;;;;;;7391834;19;20011;-76
2022/05/11 00:29:06;;;;;;;3.58;2.67;;;;;;;;;;7386046;19;20006;-76
2022/05/11 00:31:32;;;;;;;3.10;2.40;;;;;;;;;;7390321;19;20014;-76
2022/05/11 00:33:58;;;;;;;4.07;3.55;;;;;;;;;;7391576;19;20445;-77
2022/05/11 00:36:24;;;;;;;3.30;2.97;;;;;;;;;;7391666;19;20031;-79
2022/05/11 00:38:49;;;;;;;4.55;3.28;;;;;;;;;;7394446;19;20002;-77
2022/05/11 00:41:15;;;;;;;3.25;2.78;;;;;;;;;;7389851;19;20184;-76
2022/05/11 00:43:50;;;;;;;3.90;2.70;;;;;;;;;;7391632;19;20536;-76
2022/05/11 00:46:26;;;;;;;3.97;2.75;;;;;;;;;;7392155;19;20038;-76
2022/05/11 00:51:44;;;;;;;2.38;2.10;;;;;;;;;;7387984;19;21135;-76
2022/05/11 00:54:10;;;;;;;4.30;2.90;;;;;;;;;;7391666;19;20003;-79
2022/05/11 00:56:39;;;;;;;2.90;2.42;;;;;;;;;;7391610;19;20010;-76
2022/05/11 00:59:11;;;;;;;3.67;2.97;;;;;;;;;;7389153;19;20010;-78
2022/05/11 01:01:38;;;;;;;3.65;2.80;;;;;;;;;;7391257;19;20019;-76
2022/05/11 01:04:08;;;;;;;5.22;3.40;;;;;;;;;;7389736;19;20006;-76
2022/05/11 01:06:34;;;;;;;4.03;3.17;;;;;;;;;;7388004;19;20039;-76
2022/05/11 01:09:01;;;;;;;4.25;2.97;;;;;;;;;;7387650;19;20358;-76
2022/05/11 01:11:28;;;;;;;6.55;2.90;;;;;;;;;;7390520;19;20021;-79
2022/05/11 01:13:54;;;;;;;4.35;2.75;;;;;;;;;;7388658;19;20006;-78
2022/05/11 01:16:20;;;;;;;5.30;3.58;;;;;;;;;;7389397;19;20114;-79
2022/05/11 01:18:45;;;;;;;6.95;3.60;;;;;;;;;;7391233;19;20336;-79
2022/05/11 01:21:11;;;;;;;5.20;3.35;;;;;;;;;;7386179;19;20014;-76
2022/05/11 01:23:55;;;;;;;3.28;2.45;;;;;;;;;;7390075;19;20010;-79
2022/05/11 01:26:20;;;;;;;3.20;2.70;;;;;;;;;;7393724;19;20024;-78
2022/05/11 01:28:48;;;;;;;8.15;2.67;;;;;;;;;;7389663;19;20006;-79
2022/05/11 01:31:15;;;;;;;3.50;2.50;;;;;;;;;;7390884;19;20770;-78
2022/05/11 01:33:47;;;;;;;3.33;2.60;;;;;;;;;;7390256;19;20049;-78
2022/05/11 01:36:29;;;;;;;5.50;2.78;;;;;;;;;;7390863;19;20014;-78
2022/05/11 01:39:00;;;;;;;3.92;2.35;;;;;;;;;;7392825;19;20002;-78
2022/05/11 01:41:35;;;;;;;3.45;2.47;;;;;;;;;;7390206;19;20014;-78
2022/05/11 01:44:02;;;;;;;3.60;3.05;;;;;;;;;;7392845;19;20003;-78
2022/05/11 01:46:27;;;;;;;3.35;2.80;;;;;;;;;;7394503;19;20503;-78
2022/05/11 01:48:53;;;;;;;4.57;3.03;;;;;;;;;;7393357;19;20005;-78
2022/05/11 01:51:20;;;;;;;5.50;2.22;;;;;;;;;;7389359;19;20014;-78
2022/05/11 01:53:46;;;;;;;6.90;2.53;;;;;;;;;;7388275;19;20517;-78
2022/05/11 01:56:17;;;;;;;4.25;3.35;;;;;;;;;;7391196;19;20340;-78
2022/05/11 01:58:43;;;;;;;5.10;2.60;;;;;;;;;;7388959;19;20023;-78
2022/05/11 02:01:08;;;;;;;3.15;2.72;;;;;;;;;;7392593;19;20010;-78
2022/05/11 02:03:34;;;;;;;3.10;2.75;;;;;;;;;;7392848;19;20109;-78
2022/05/11 02:08:44;;;;;;;4.25;2.78;;;;;;;;;;7392732;19;20057;-78
2022/05/11 02:11:12;;;;;;;3.47;2.92;;;;;;;;;;7388697;19;20010;-78
2022/05/11 02:13:37;;;;;;;3.42;2.63;;;;;;;;;;7388409;19;20032;-78
2022/05/11 02:16:03;;;;;;;2.22;1.88;;;;;;;;;;7389587;19;20010;-78
2022/05/11 02:18:29;;;;;;;2.80;1.98;;;;;;;;;;7392822;19;20029;-78
2022/05/11 02:20:55;;;;;;;3.97;3.03;;;;;;;;;;7392188;19;20606;-78
2022/05/11 02:23:22;;;;;;;3.97;2.85;;;;;;;;;;7391046;19;20010;-78
2022/05/11 02:25:48;;;;;;;3.30;2.45;;;;;;;;;;7392402;19;20014;-78
2022/05/11 02:28:16;;;;;;;3.45;2.60;;;;;;;;;;7390976;19;20018;-78
2022/05/11 02:30:43;;;;;;;3.60;2.50;;;;;;;;;;7391069;19;20031;-78
2022/05/11 02:33:09;;;;;;;2.85;2.40;;;;;;;;;;7391883;19;20122;-78
2022/05/11 02:35:34;;;;;;;3.72;2.67;;;;;;;;;;7392975;19;20148;-78
2022/05/11 02:38:02;;;;;;;3.72;2.70;;;;;;;;;;7388902;19;20055;-77
2022/05/11 02:40:31;;;;;;;4.53;2.70;;;;;;;;;;7391547;19;20444;-78
2022/05/11 02:42:56;;;;;;;2.83;2.45;;;;;;;;;;7389816;19;20078;-78
2022/05/11 02:45:23;;;;;;;4.28;2.60;;;;;;;;;;7388071;19;20063;-78
2022/05/11 02:47:50;;;;;;;3.20;2.63;;;;;;;;;;7387395;19;20006;-78
2022/05/11 02:50:23;;;;;;;3.17;2.33;;;;;;;;;;7393697;19;20014;-78
2022/05/11 02:52:48;;;;;;;3.88;2.45;;;;;;;;;;7389039;19;20014;-78
2022/05/11 02:55:14;;;;;;;2.28;2.08;;;;;;;;;;7389629;19;20095;-78
2022/05/11 02:57:39;;;;;;;3.08;2.30;;;;;;;;;;7389986;19;20030;-78
2022/05/11 03:00:07;;;;;;;21.92;3.55;;;;;;;;;;7392753;19;20003;-78
2022/05/11 03:02:32;;;;;;;3.15;2.50;;;;;;;;;;7387823;19;20014;-78
2022/05/11 03:04:57;;;;;;;3.38;2.63;;;;;;;;;;7390476;19;20002;-78
2022/05/11 03:07:23;;;;;;;3.60;2.88;;;;;;;;;;7390485;19;20011;-78
2022/05/11 03:09:49;;;;;;;6.75;2.65;;;;;;;;;;7390788;19;20010;-78
2022/05/11 03:12:15;;;;;;;3.70;2.45;;;;;;;;;;7388245;19;20021;-78
2022/05/11 03:14:41;;;;;;;3.30;2.45;;;;;;;;;;7391574;19;20011;-78
2022/05/11 03:17:07;;;;;;;2.22;2.03;;;;;;;;;;7388454;19;20014;-78
2022/05/11 03:19:33;;;;;;;6.90;2.65;;;;;;;;;;7388951;19;20022;-78
2022/05/11 03:21:58;;;;;;;2.83;2.53;;;;;;;;;;7387250;19;20015;-78
2022/05/11 03:24:24;;;;;;;4.13;2.88;;;;;;;;;;7390610;19;20006;-78
2022/05/11 03:26:49;;;;;;;3.85;2.72;;;;;;;;;;7390351;19;20014;-78
2022/05/11 03:29:15;;;;;;;3.65;2.67;;;;;;;;;;7387927;19;20035;-78
2022/05/11 03:31:40;;;;;;;4.93;2.13;;;;;;;;;;7389122;19;20014;-78
2022/05/11 03:36:52;;;;;;;3.42;2.63;;;;;;;;;;7388364;19;20015;-78
2022/05/11 03:39:18;;;;;;;2.90;2.55;;;;;;;;;;7389012;19;20015;-78
2022/05/11 03:41:48;;;;;;;3.60;2.63;;;;;;;;;;7388129;19;20460;-78
2022/05/11 03:44:13;;;;;;;4.70;2.95;;;;;;;;;;7389030;19;20007;-78
2022/05/11 03:46:39;;;;;;;3.65;2.30;;;;;;;;;;7387495;19;20026;-78
2022/05/11 03:49:05;;;;;;;3.28;2.53;;;;;;;;;;7385746;19;20884;-78
2022/05/11 03:51:30;;;;;;;4.65;2.90;;;;;;;;;;7386224;19;20554;-78
2022/05/11 03:53:55;;;;;;;3.92;2.85;;;;;;;;;;7389633;19;20006;-78
2022/05/11 03:56:21;;;;;;;4.20;2.83;;;;;;;;;;7386765;19;20002;-78
2022/05/11 03:58:46;;;;;;;7.85;2.40;;;;;;;;;;7383596;19;20440;-79
2022/05/11 04:01:12;;;;;;;4.78;1.92;;;;;;;;;;7390270;19;20964;-79
2022/05/11 04:03:38;;;;;;;3.35;2.53;;;;;;;;;;7387396;19;20011;-79
2022/05/11 04:06:04;;;;;;;4.05;2.45;;;;;;;;;;7393077;19;20111;-79
2022/05/11 04:08:29;;;;;;;3.53;2.70;;;;;;;;;;7396162;19;20033;-78
2022/05/11 04:10:54;;;;;;;3.22;2.63;;;;;;;;;;7393598;19;20019;-78
2022/05/11 04:13:20;;;;;;;3.10;2.30;;;;;;;;;;7391954;19;20003;-78
2022/05/11 04:15:49;;;;;;;3.88;2.50;;;;;;;;;;7395258;19;20019;-78
2022/05/11 04:18:15;;;;;;;2.95;2.28;;;;;;;;;;7391089;19;20014;-78
2022/05/11 04:20:40;;;;;;;10.80;2.65;;;;;;;;;;7392061;19;20369;-78
2022/05/11 04:23:05;;;;;;;7.43;3.08;;;;;;;;;;7395229;19;20010;-78
2022/05/11 04:25:32;;;;;;;4.50;2.63;;;;;;;;;;7394268;19;20424;-78
2022/05/11 04:27:57;;;;;;;5.75;2.63;;;;;;;;;;7388680;19;20012;-78
2022/05/11 04:30:26;;;;;;;10.02;2.95;;;;;;;;;;7398476;19;20007;-79
2022/05/11 04:32:51;;;;;;;7.68;2.40;;;;;;;;;;7397929;19;20002;-79
2022/05/11 04:35:16;;;;;;;2.25;1.90;;;;;;;;;;7396913;19;20011;-79
2022/05/11 04:37:42;;;;;;;5.88;2.53;;;;;;;;;;7397430;19;20014;-79
2022/05/11 04:40:10;;;;;;;4.50;3.08;;;;;;;;;;7396470;19;20014;-80
2022/05/11 04:42:36;;;;;;;3.50;2.80;;;;;;;;;;7396168;19;20014;-79
2022/05/11 04:45:01;;;;;;;4.05;2.00;;;;;;;;;;7396785;19;19995;-80
2022/05/11 04:47:26;;;;;;;6.93;2.67;;;;;;;;;;7394578;19;20430;-79
2022/05/11 04:49:53;;;;;;;3.45;2.67;;;;;;;;;;7396383;19;20046;-78
2022/05/11 04:52:19;;;;;;;3.40;2.38;;;;;;;;;;7392685;19;20021;-78
2022/05/11 04:54:50;;;;;;;3.10;2.35;;;;;;;;;;7388786;19;20078;-78
2022/05/11 04:57:18;;;;;;;2.22;1.95;;;;;;;;;;7394918;19;20021;-79
2022/05/11 04:59:43;;;;;;;3.15;2.45;;;;;;;;;;7394002;19;20006;-79
2022/05/11 05:02:15;;;;;;;4.40;2.67;;;;;;;;;;7394338;19;20007;-79
2022/05/11 05:04:41;;;;;;;5.65;2.65;;;;;;;;;;7393188;19;20009;-78
2022/05/11 05:07:06;;;;;;;3.28;2.50;;;;;;;;;;7390679;19;20010;-77
2022/05/11 05:09:31;;;;;;;2.17;1.98;;;;;;;;;;7393544;19;19999;-78
2022/05/11 05:11:56;;;;;;;5.05;2.50;;;;;;;;;;7393917;19;20003;-78
2022/05/11 05:14:22;;;;;;;2.95;2.38;;;;;;;;;;7393654;19;20062;-78
2022/05/11 05:16:48;;;;;;;2.35;2.15;;;;;;;;;;7393503;19;20011;-79
2022/05/11 05:19:14;;;;;;;6.43;2.70;;;;;;;;;;7389265;19;20018;-79
2022/05/11 05:21:39;;;;;;;5.97;2.38;;;;;;;;;;7392115;19;20010;-81
2022/05/11 05:24:05;;;;;;;6.28;2.75;;;;;;;;;;7393865;19;20050;-78
2022/05/11 05:26:30;;;;;;;2.88;2.08;;;;;;;;;;7394655;19;20006;-80
2022/05/11 05:31:39;;;;;;;3.90;1.73;;;;;;;;;;7396601;19;20031;-78
2022/05/11 05:34:05;;;;;;;6.32;2.00;;;;;;;;;;7394190;19;20114;-79
2022/05/11 05:36:35;;;;;;;2.92;2.03;;;;;;;;;;7390230;19;20491;-79
2022/05/11 05:39:01;;;;;;;2.78;2.13;;;;;;;;;;7389906;19;20496;-81
2022/05/11 05:41:27;;;;;;;6.13;1.90;;;;;;;;;;7396822;19;20017;-79
2022/05/11 05:43:54;;;;;;;4.53;1.90;;;;;;;;;;7396218;19;20036;-80
2022/05/11 05:46:20;;;;;;;3.70;2.58;;;;;;;;;;7392864;19;20040;-81
2022/05/11 05:48:45;;;;;;;2.28;2.08;;;;;;;;;;7393264;19;20586;-80
2022/05/11 05:51:14;;;;;;;4.40;2.10;;;;;;;;;;7392259;19;20014;-79
2022/05/11 05:53:40;;;;;;;4.25;2.13;;;;;;;;;;7394195;19;20039;-78
2022/05/11 05:56:06;;;;;;;2.80;1.90;;;;;;;;;;7394705;19;20006;-80
2022/05/11 05:58:32;;;;;;;2.60;2.08;;;;;;;;;;7396514;19;20025;-80
2022/05/11 06:00:57;;;;;;;4.35;2.53;;;;;;;;;;7396712;19;20403;-79
2022/05/11 06:03:25;;;;;;;2.60;1.90;;;;;;;;;;7393157;19;20009;-78
2022/05/11 06:05:51;;;;;;;2.10;1.90;;;;;;;;;;7398744;19;20480;-78
2022/05/11 06:08:16;;;;;;;2.95;1.83;;;;;;;;;;7398342;19;20039;-80
2022/05/11 06:10:43;;;;;;;2.47;1.85;;;;;;;;;;7396227;19;20013;-79
2022/05/11 06:13:09;;;;;;;3.72;1.73;;;;;;;;;;7401896;19;19999;-79
2022/05/11 06:15:35;;;;;;;2.63;1.75;;;;;;;;;;7400829;19;20006;-80
2022/05/11 06:18:01;;;;;;;3.70;1.67;;;;;;;;;;7397025;19;20072;-79
2022/05/11 06:20:27;;;;;;;3.13;1.95;;;;;;;;;;7413497;19;20010;-79
2022/05/11 06:22:53;;;;;;;2.22;2.00;;;;;;;;;;7413419;19;20009;-76
2022/05/11 06:25:22;;;;;;;2.92;1.92;;;;;;;;;;7410429;19;20006;-77
2022/05/11 06:27:48;;;;;;;5.38;2.00;;;;;;;;;;7414288;19;20013;-76
2022/05/11 06:30:13;;;;;;;2.70;2.10;;;;;;;;;;7401103;19;20010;-79
2022/05/11 06:32:39;;;;;;;2.40;2.00;;;;;;;;;;7387044;19;20010;-80
2022/05/11 06:35:05;;;;;;;7.22;2.00;;;;;;;;;;7390951;19;20218;-80
2022/05/11 06:37:30;;;;;;;6.05;2.28;;;;;;;;;;7390533;19;20018;-81
2022/05/11 06:39:56;;;;;;;2.22;1.80;;;;;;;;;;7393260;19;20101;-79
2022/05/11 06:42:22;;;;;;;3.10;1.90;;;;;;;;;;7391909;19;20321;-80
2022/05/11 06:44:49;;;;;;;2.60;1.63;;;;;;;;;;7391645;19;20077;-80
2022/05/11 06:47:15;;;;;;;3.20;1.90;;;;;;;;;;7395242;19;20129;-80
2022/05/11 06:49:40;;;;;;;3.08;1.88;;;;;;;;;;7391407;19;20031;-77
2022/05/11 06:52:06;;;;;;;3.65;2.25;;;;;;;;;;7396607;19;20403;-78
2022/05/11 06:59:59;;;;;;;2.83;2.22;;;;;;;;;;7388278;19;20348;-79
2022/05/11 07:02:25;;;;;;;2.45;1.92;;;;;;;;;;7387401;19;20010;-77
2022/05/11 07:04:50;;;;;;;2.28;2.00;;;;;;;;;;7389778;19;20017;-79
2022/05/11 07:07:17;;;;;;;2.85;2.10;;;;;;;;;;7385933;19;20026;-80
2022/05/11 07:09:42;;;;;;;2.47;1.90;;;;;;;;;;7386297;19;20006;-78
2022/05/11 07:12:17;;;;;;;3.10;2.10;;;;;;;;;;7378806;19;21875;-79
2022/05/11 07:15:05;;;;;;;5.18;1.98;;;;;;;;;;7388640;19;20014;-78
2022/05/11 07:17:34;;;;;;;2.58;2.10;;;;;;;;;;7389083;19;20021;-79
2022/05/11 07:20:04;;;;;;;3.70;2.03;;;;;;;;;;7386886;19;20006;-79
2022/05/11 07:22:29;;;;;;;3.70;2.35;;;;;;;;;;7384637;19;20019;-78
2022/05/11 07:24:54;;;;;;;2.72;2.10;;;;;;;;;;7387993;19;20645;-80
2022/05/11 07:27:21;;;;;;;4.07;2.30;;;;;;;;;;7387823;19;20011;-79
2022/05/11 07:29:48;;;;;;;2.95;2.15;;;;;;;;;;7384436;19;20009;-80
2022/05/11 07:32:13;;;;;;;3.22;2.25;;;;;;;;;;7387793;19;20398;-78
2022/05/11 07:34:38;;;;;;;3.25;2.15;;;;;;;;;;7389101;19;20490;-80
2022/05/11 07:37:05;;;;;;;2.42;2.22;;;;;;;;;;7385691;19;20003;-78
2022/05/11 07:39:30;;;;;;;2.33;1.85;;;;;;;;;;7387023;19;20010;-82
2022/05/11 07:41:56;;;;;;;3.80;2.13;;;;;;;;;;7390653;19;20011;-78
2022/05/11 07:44:21;;;;;;;4.15;2.10;;;;;;;;;;7395854;19;20015;-80
2022/05/11 07:46:47;;;;;;;2.95;2.30;;;;;;;;;;7398344;19;20010;-80
2022/05/11 07:49:13;;;;;;;2.33;2.13;;;;;;;;;;7389768;19;20309;-79
2022/05/11 07:51:41;;;;;;;2.78;2.00;;;;;;;;;;7395115;19;20498;-77
2022/05/11 07:54:06;;;;;;;3.20;2.10;;;;;;;;;;7396025;19;20014;-78
2022/05/11 08:02:00;;;;;;;4.25;2.20;;;;;;;;;;7394809;19;20021;-80
2022/05/11 08:04:25;;;;;;;2.22;1.83;;;;;;;;;;7395714;19;20007;-78
2022/05/11 08:06:51;;;;;;;3.65;1.88;;;;;;;;;;7398614;19;19998;-78
2022/05/11 08:09:16;;;;;;;5.40;1.90;;;;;;;;;;7390838;19;20681;-78
2022/05/11 08:11:41;;;;;;;2.90;1.67;;;;;;;;;;7391760;19;20007;-79
2022/05/11 08:14:08;;;;;;;1.92;1.73;;;;;;;;;;7377332;19;20449;-79
2022/05/11 08:16:33;;;;;;;3.28;1.95;;;;;;;;;;7380564;19;20077;-77
2022/05/11 08:18:58;;;;;;;2.38;1.77;;;;;;;;;;7384932;19;20011;-79
2022/05/11 08:21:25;;;;;;;2.28;1.80;;;;;;;;;;7387186;19;20438;-78
2022/05/11 08:23:50;;;;;;;6.57;1.80;;;;;;;;;;7382277;19;20479;-79
2022/05/11 08:26:16;;;;;;;7.40;2.05;;;;;;;;;;7383156;19;20010;-79
2022/05/11 08:28:42;;;;;;;2.22;2.03;;;;;;;;;;7376704;19;20358;-78
2022/05/11 08:33:52;;;;;;;3.80;1.92;;;;;;;;;;7391361;19;20078;-80
2022/05/11 08:36:23;;;;;;;8.00;2.40;;;;;;;;;;7387957;19;20010;-79
2022/05/11 08:38:52;;;;;;;2.30;1.52;;;;;;;;;;7388065;19;20474;-79
2022/05/11 08:41:53;;;;;;;2.03;1.83;;;;;;;;;;7390339;19;20015;-81
2022/05/11 08:44:32;;;;;;;2.38;1.70;;;;;;;;;;7396077;19;20007;-80
2022/05/11 08:47:13;;;;;;;2.20;1.75;;;;;;;;;;7395753;19;20006;-79
2022/05/11 08:49:38;;;;;;;4.90;2.00;;;;;;;;;;7394113;19;20045;-79
2022/05/11 08:52:16;;;;;;;4.85;1.92;;;;;;;;;;7398836;19;20011;-79
2022/05/11 08:55:18;;;;;;;6.78;2.35;;;;;;;;;;7395916;19;20477;-80
2022/05/11 08:57:46;;;;;;;2.72;2.10;;;;;;;;;;7390741;19;20590;-78
2022/05/11 09:00:15;;;;;;;2.35;2.15;;;;;;;;;;7393577;19;20006;-81
2022/05/11 09:02:41;;;;;;;3.75;1.80;;;;;;;;;;7393582;19;20014;-80
2022/05/11 09:05:07;;;;;;;2.50;2.00;;;;;;;;;;7398252;19;20005;-78
2022/05/11 09:07:37;;;;;;;2.90;1.80;;;;;;;;;;7398424;19;20275;-79
2022/05/11 09:10:04;;;;;;;4.25;1.90;;;;;;;;;;7398424;19;20016;-79
2022/05/11 09:12:30;;;;;;;2.53;2.30;;;;;;;;;;7397456;19;20006;-80
2022/05/11 09:14:59;;;;;;;4.90;2.10;;;;;;;;;;7394441;19;20007;-78
2022/05/11 09:17:29;;;;;;;4.38;2.00;;;;;;;;;;7396108;19;20007;-77
2022/05/11 09:20:04;;;;;;;2.35;2.10;;;;;;;;;;7396131;19;20023;-77
2022/05/11 09:22:31;;;;;;;2.95;2.42;;;;;;;;;;7387662;19;20015;-79
2022/05/11 09:24:59;;;;;;;3.85;2.10;;;;;;;;;;7392156;19;20010;-78
2022/05/11 09:27:44;;;;;;;7.18;2.20;;;;;;;;;;7393678;19;20505;-78
2022/05/11 09:30:19;;;;;;;3.70;2.03;;;;;;;;;;7391971;19;20408;-77
2022/05/11 09:32:44;;;;;;;11.77;2.50;;;;;;;;;;7392346;19;20046;-78
2022/05/11 09:35:24;;;;;;;4.70;2.30;;;;;;;;;;7389758;19;20003;-79
2022/05/11 09:38:03;;;;;;;5.47;2.28;;;;;;;;;;7397323;19;20002;-77
2022/05/11 09:40:30;;;;;;;2.97;2.25;;;;;;;;;;7397113;19;20026;-78
2022/05/11 09:42:59;;;;;;;6.85;2.40;;;;;;;;;;7395737;19;20026;-78
2022/05/11 09:45:33;;;;;;;3.78;2.40;;;;;;;;;;7393500;19;20044;-78
2022/05/11 09:48:08;;;;;;;3.42;1.98;;;;;;;;;;7395341;19;20014;-77
2022/05/11 09:50:34;;;;;;;1.95;1.83;;;;;;;;;;7393583;19;20014;-77
2022/05/11 09:53:11;;;;;;;2.25;1.90;;;;;;;;;;7385321;19;20015;-77
2022/05/11 09:55:36;;;;;;;5.00;2.08;;;;;;;;;;7385894;19;20006;-76
2022/05/11 09:58:06;;;;;;;2.70;1.80;;;;;;;;;;7386711;19;20015;-77
2022/05/11 10:00:38;;;;;;;2.38;1.77;;;;;;;;;;7386701;19;20096;-77
2022/05/11 10:03:08;;;;;;;2.35;1.73;;;;;;;;;;7386956;19;20641;-77
2022/05/11 10:05:42;;;;;;;1.65;1.55;;;;;;;;;;7382054;19;20376;-77
2022/05/11 10:08:18;;;;;;;2.03;1.77;;;;;;;;;;7384537;19;20118;-77
2022/05/11 10:10:59;;;;;;;2.05;1.60;;;;;;;;;;7380166;19;20014;-77
2022/05/11 10:13:32;;;;;;;2.85;2.22;;;;;;;;;;7385485;19;20011;-78
2022/05/11 10:21:50;;;;;;;2.37;1.60;;;;;;;;;;7376296;19;20043;-77
2022/05/11 10:24:22;;;;;;;5.63;1.45;;;;;;;;;;7380461;19;20425;-78
2022/05/11 10:27:20;;;;;;;2.17;1.67;;;;;;;;;;7387169;19;20100;-77
2022/05/11 10:30:08;;;;;;;3.55;1.35;;;;;;;;;;7381882;19;20016;-77
2022/05/11 10:32:40;;;;;;;5.60;1.52;;;;;;;;;;7383073;19;20450;-77
2022/05/11 10:35:17;;;;;;;3.17;1.70;;;;;;;;;;7383918;19;20819;-77
2022/05/11 10:37:53;;;;;;;3.20;1.50;;;;;;;;;;7384837;19;20011;-78
2022/05/11 10:40:50;;;;;;;1.48;1.27;;;;;;;;;;7385388;19;20050;-77
2022/05/11 10:43:31;;;;;;;3.40;1.38;;;;;;;;;;7385684;19;20018;-78
2022/05/11 10:46:08;;;;;;;1.77;1.30;;;;;;;;;;7389167;19;20007;-77
2022/05/11 10:48:52;;;;;;;5.95;1.40;;;;;;;;;;7383113;19;20039;-77
2022/05/11 10:51:40;;;;;;;3.58;1.30;;;;;;;;;;7383696;19;20014;-77
2022/05/11 10:54:23;;;;;;;1.55;1.40;;;;;;;;;;7383156;19;20010;-78
2022/05/11 10:57:20;;;;;;;3.50;1.35;;;;;;;;;;7384145;19;21020;-77
2022/05/11 11:00:09;;;;;;;1.92;1.40;;;;;;;;;;7384487;19;20134;-78
2022/05/11 11:02:58;;;;;;;4.30;1.30;;;;;;;;;;7386679;19;20011;-77
2022/05/11 11:05:35;;;;;;;4.68;1.50;;;;;;;;;;7377722;19;20343;-78
2022/05/11 11:08:35;;;;;;;3.30;1.58;;;;;;;;;;7388421;19;20019;-78
2022/05/11 11:11:18;;;;;;;1.30;1.17;;;;;;;;;;7382733;19;20021;-78
2022/05/11 11:13:54;;;;;;;2.40;1.58;;;;;;;;;;7385642;19;20229;-78
2022/05/11 11:16:24;;;;;;;5.50;1.40;;;;;;;;;;7386495;19;20078;-79
2022/05/11 11:18:50;;;;;;;5.22;1.50;;;;;;;;;;7387915;19;20017;-78
2022/05/11 11:21:17;;;;;;;1.52;1.33;;;;;;;;;;7392343;19;20010;-78
2022/05/11 11:23:47;;;;;;;2.03;1.42;;;;;;;;;;7413111;19;20009;-79
2022/05/11 11:26:45;;;;;;;2.17;1.58;;;;;;;;;;7411959;19;20015;-78
2022/05/11 11:29:11;;;;;;;1.90;1.50;;;;;;;;;;7396496;19;20030;-78
2022/05/11 11:32:01;;;;;;;1.30;1.20;;;;;;;;;;7397718;19;20010;-80
2022/05/11 11:34:31;;;;;;;2.85;1.48;;;;;;;;;;7396041;19;20267;-78
2022/05/11 11:36:58;;;;;;;2.00;1.38;;;;;;;;;;7391754;19;20416;-78
2022/05/11 11:39:48;;;;;;;1.63;1.30;;;;;;;;;;7394603;19;20018;-77
2022/05/11 11:42:43;;;;;;;1.75;1.10;;;;;;;;;;7393223;19;20080;-77
2022/05/11 11:45:18;;;;;;;1.38;1.10;;;;;;;;;;7394633;19;20312;-78
2022/05/11 11:48:00;;;;;;;1.23;1.13;;;;;;;;;;7393952;19;20413;-76
2022/05/11 11:50:55;;;;;;;6.05;1.30;;;;;;;;;;7390732;19;20006;-77
2022/05/11 11:53:26;;;;;;;;;;;;;;;;;;7397741;19;20027;-77
2022/05/11 11:55:52;;;;;;;5.30;1.50;;;;;;;;;;7388660;19;19927;-77
2022/05/11 11:58:23;;;;;;;9.00;1.20;;;;;;;;;;7389336;19;21400;-77
2022/05/11 12:00:48;;;;;;;3.90;1.20;;;;;;;;;;7389997;19;20014;-77
2022/05/11 12:03:23;;;;;;;2.50;1.30;;;;;;;;;;7390980;19;20017;-76
2022/05/11 12:05:53;;;;;;;2.00;1.17;;;;;;;;;;7389822;19;20455;-76
2022/05/11 12:16:54;;;;;;;1.40;1.30;;;;;;;;;;7392609;19;20022;-76
2022/05/11 12:19:21;;;;;;;1.42;1.13;;;;;;;;;;7390736;19;20014;-76
2022/05/11 12:22:00;;;;;;;2.10;1.20;;;;;;;;;;7393571;19;20023;-76
2022/05/11 12:24:41;;;;;;;2.42;1.25;;;;;;;;;;7396982;19;20022;-76
2022/05/11 12:27:28;;;;;;;2.35;1.15;;;;;;;;;;7391149;19;20559;-76
2022/05/11 12:29:59;;;;;;;1.08;0.93;;;;;;;;;;7397393;19;20438;-76
2022/05/11 12:32:35;;;;;;;1.60;1.05;;;;;;;;;;7391391;19;20007;-76
2022/05/11 12:35:21;;;;;;;1.60;1.08;;;;;;;;;;7389659;19;20027;-76
2022/05/11 12:38:05;;;;;;;3.75;1.00;;;;;;;;;;7391903;19;20524;-77
2022/05/11 12:40:47;;;;;;;2.47;1.30;;;;;;;;;;7392036;19;20014;-76
2022/05/11 12:43:23;;;;;;;4.40;1.17;;;;;;;;;;7390015;19;20094;-76
2022/05/11 12:45:51;;;;;;;1.33;1.15;;;;;;;;;;7389880;19;20023;-76
2022/05/11 12:48:19;;;;;;;2.65;1.20;;;;;;;;;;7391631;19;19998;-76
2022/05/11 12:50:51;;;;;;;1.92;1.05;;;;;;;;;;7388306;19;20499;-76
2022/05/11 12:53:17;;;;;;;1.60;1.15;;;;;;;;;;7393002;19;20142;-76
2022/05/11 12:55:49;;;;;;;1.40;1.30;;;;;;;;;;7389831;19;20013;-77
2022/05/11 12:58:31;;;;;;;2.38;1.20;;;;;;;;;;7393344;19;20271;-77
2022/05/11 13:01:00;;;;;;;2.83;1.10;;;;;;;;;;7388692;19;20110;-79
2022/05/11 13:03:35;;;;;;;1.20;1.10;;;;;;;;;;7390709;19;20058;-76
2022/05/11 13:06:10;;;;;;;3.47;1.27;;;;;;;;;;7386009;19;20003;-76
2022/05/11 13:08:41;;;;;;;2.65;1.30;;;;;;;;;;7389545;19;20546;-76
2022/05/11 13:11:10;;;;;;;1.48;1.20;;;;;;;;;;7387349;19;20014;-76
2022/05/11 13:13:35;;;;;;;1.35;1.20;;;;;;;;;;7393108;19;20014;-76
2022/05/11 13:16:23;;;;;;;4.65;1.67;;;;;;;;;;7392606;19;20581;-76
2022/05/11 13:18:49;;;;;;;1.58;1.20;;;;;;;;;;7390629;19;20014;-76
2022/05/11 13:21:27;;;;;;;2.95;1.17;;;;;;;;;;7388012;19;20010;-76
2022/05/11 13:23:52;;;;;;;1.30;1.20;;;;;;;;;;7390549;19;20070;-76
2022/05/11 13:26:35;;;;;;;1.35;0.82;;;;;;;;;;7387238;19;20011;-76
2022/05/11 13:29:23;;;;;;;6.22;1.10;;;;;;;;;;7382367;19;20014;-76
2022/05/11 13:32:05;;;;;;;2.40;1.20;;;;;;;;;;7389881;19;20424;-77
2022/05/11 13:34:32;;;;;;;2.58;1.00;;;;;;;;;;7389153;19;20011;-76
2022/05/11 13:36:59;;;;;;;3.53;1.30;;;;;;;;;;7389761;19;20358;-77
2022/05/11 13:39:32;;;;;;;1.33;1.00;;;;;;;;;;7386088;19;20047;-77
2022/05/11 13:42:02;;;;;;;2.05;0.98;;;;;;;;;;7384004;19;20038;-77
2022/05/11 13:44:36;;;;;;;2.63;0.98;;;;;;;;;;7386492;19;20007;-76
2022/05/11 13:50:32;;;;;;;3.08;1.08;;;;;;;;;;7387982;19;20086;-77
2022/05/11 13:53:01;;;;;;;1.25;1.15;;;;;;;;;;7389675;19;20011;-76
2022/05/11 13:55:35;;;;;;;2.20;1.17;;;;;;;;;;7383525;19;20486;-77
2022/05/11 13:58:22;;;;;;;2.05;1.30;;;;;;;;;;7392501;19;20386;-76
2022/05/11 14:00:49;;;;;;;1.83;1.30;;;;;;;;;;7389048;19;20031;-77
2022/05/11 14:03:15;;;;;;;3.03;1.20;;;;;;;;;;7388881;19;20018;-77
2022/05/11 14:05:44;;;;;;;1.42;1.27;;;;;;;;;;7384853;19;20069;-77
2022/05/11 14:08:10;;;;;;;2.15;1.15;;;;;;;;;;7388207;19;20335;-77
2022/05/11 14:10:35;;;;;;;5.82;1.40;;;;;;;;;;7388879;19;20018;-77
2022/05/11 14:13:01;;;;;;;1.77;1.15;;;;;;;;;;7387867;19;20011;-77
2022/05/11 14:15:26;;;;;;;1.73;1.20;;;;;;;;;;7389048;19;20037;-77
2022/05/11 14:17:52;;;;;;;2.53;1.02;;;;;;;;;;7389382;19;20252;-77
2022/05/11 14:20:22;;;;;;;1.00;1.00;;;;;;;;;;7385431;19;20105;-77
2022/05/11 14:22:48;;;;;;;9.43;1.30;;;;;;;;;;7388111;19;20403;-77
2022/05/11 14:25:15;;;;;;;1.50;1.00;;;;;;;;;;7382234;19;20011;-77
2022/05/11 14:27:44;;;;;;;1.13;0.90;;;;;;;;;;7384129;19;20002;-77
2022/05/11 14:30:13;;;;;;;2.95;1.00;;;;;;;;;;7389561;19;20450;-77
2022/05/11 14:32:45;;;;;;;2.40;0.90;;;;;;;;;;7386825;19;20006;-77
2022/05/11 14:35:14;;;;;;;5.00;1.20;;;;;;;;;;7387010;19;20014;-77
2022/05/11 14:37:40;;;;;;;1.80;0.80;;;;;;;;;;7389300;19;20354;-77
2022/05/11 14:40:08;;;;;;;2.65;1.00;;;;;;;;;;7391065;19;20453;-77
2022/05/11 14:42:34;;;;;;;1.45;1.00;;;;;;;;;;7385781;19;20018;-77
2022/05/11 14:45:00;;;;;;;2.35;0.90;;;;;;;;;;7388369;19;20002;-77
2022/05/11 14:47:26;;;;;;;2.15;1.05;;;;;;;;;;7387874;19;20068;-77
2022/05/11 14:49:51;;;;;;;1.83;1.10;;;;;;;;;;7389234;19;20711;-77
2022/05/11 14:52:16;;;;;;;3.38;1.20;;;;;;;;;;7388693;19;20018;-77
2022/05/11 14:54:42;;;;;;;1.98;1.17;;;;;;;;;;7392722;19;20428;-77
2022/05/11 15:02:28;;;;;;;2.22;1.05;;;;;;;;;;7369124;19;20022;-66
2022/05/11 15:04:54;;;;;;;13.57;1.10;;;;;;;;;;7378108;19;20007;-66
2022/05/11 15:07:21;;;;;;;1.42;1.08;;;;;;;;;;7376397;19;20023;-66
2022/05/11 15:09:49;;;;;;;3.60;1.48;;;;;;;;;;7382508;19;20022;-79
2022/05/11 15:15:10;;;;;;;2.63;1.10;;;;;;;;;;7393850;19;20013;-78
2022/05/11 15:17:37;;;;;;;1.35;1.00;;;;;;;;;;7394787;19;20022;-78
2022/05/11 15:20:16;;;;;;;3.05;1.10;;;;;;;;;;7393838;19;20006;-78
2022/05/11 15:22:45;;;;;;;1.13;1.00;;;;;;;;;;7388672;19;20389;-77
2022/05/11 15:25:16;;;;;;;3.78;1.00;;;;;;;;;;7391847;19;20036;-78
2022/05/11 15:27:44;;;;;;;0.95;0.85;;;;;;;;;;7389851;19;20022;-77
2022/05/11 15:30:11;;;;;;;3.10;1.30;;;;;;;;;;7390508;19;19998;-78
2022/05/11 15:32:38;;;;;;;3.22;1.05;;;;;;;;;;7389034;19;20477;-78
2022/05/11 15:35:05;;;;;;;6.38;1.00;;;;;;;;;;7393303;19;21604;-78
2022/05/11 15:37:30;;;;;;;2.53;1.00;;;;;;;;;;7387772;19;20017;-78
2022/05/11 15:39:55;;;;;;;1.70;1.10;;;;;;;;;;7393666;19;20003;-78
2022/05/11 15:42:26;;;;;;;2.35;1.08;;;;;;;;;;7389962;19;20323;-78
2022/05/11 15:44:53;;;;;;;0.90;0.90;;;;;;;;;;7391607;19;20015;-77
2022/05/11 15:47:20;;;;;;;1.75;1.20;;;;;;;;;;7386821;19;20011;-78
2022/05/11 15:49:46;;;;;;;2.20;1.13;;;;;;;;;;7383614;19;20051;-78